sensor_id;sensor_type;location;lat;lon;timestamp;temperature;humidity
59148;DHT22;44930;52.878;6.168;2023-08-30T00:02:23;13.70;99.90
59148;DHT22;44930;52.878;6.168;2023-08-30T00:04:49;13.60;99.90
59148;DHT22;44930;52.878;6.168;2023-08-30T00:07:14;13.70;99.90
59148;DHT22;44930;52.878;6.168;2023-08-30T00:12:06;13.70;99.90
59148;DHT22;44930;52.878;6.168;2023-08-30T00:16:58;13.60;99.90
59148;DHT22;44930;52.878;6.168;2023-08-30T00:19:23;13.50;99.90
59148;DHT22;44930;52.878;6.168;2023-08-30T00:21:49;13.60;99.90
59148;DHT22;44930;52.878;6.168;2023-08-30T00:24:14;13.50;99.90
59148;DHT22;44930;52.878;6.168;2023-08-30T00:26:40;13.50;99.90
59148;DHT22;44930;52.878;6.168;2023-08-30T00:29:05;13.60;99.90
59148;DHT22;44930;52.878;6.168;2023-08-30T00:31:31;13.40;99.90
59148;DHT22;44930;52.878;6.168;2023-08-30T00:33:56;13.40;99.90
59148;DHT22;44930;52.878;6.168;2023-08-30T00:36:22;13.40;99.90
59148;DHT22;44930;52.878;6.168;2023-08-30T00:38:47;13.40;99.90
59148;DHT22;44930;52.878;6.168;2023-08-30T00:41:14;13.30;99.90
59148;DHT22;44930;52.878;6.168;2023-08-30T00:43:39;13.30;99.90
59148;DHT22;44930;52.878;6.168;2023-08-30T00:46:05;13.30;99.90
59148;DHT22;44930;52.878;6.168;2023-08-30T00:48:30;13.40;99.90
59148;DHT22;44930;52.878;6.168;2023-08-30T00:50:56;13.40;99.90
59148;DHT22;44930;52.878;6.168;2023-08-30T00:53:22;13.30;99.90
59148;DHT22;44930;52.878;6.168;2023-08-30T00:55:47;13.30;99.90
59148;DHT22;44930;52.878;6.168;2023-08-30T01:00:39;13.20;99.90
59148;DHT22;44930;52.878;6.168;2023-08-30T01:05:33;13.30;99.90
59148;DHT22;44930;52.878;6.168;2023-08-30T01:07:58;13.40;99.90
59148;DHT22;44930;52.878;6.168;2023-08-30T01:10:35;13.40;99.90
59148;DHT22;44930;52.878;6.168;2023-08-30T01:15:34;13.40;99.90
59148;DHT22;44930;52.878;6.168;2023-08-30T01:18:02;13.70;99.90
59148;DHT22;44930;52.878;6.168;2023-08-30T01:20:30;13.40;99.90
59148;DHT22;44930;52.878;6.168;2023-08-30T01:23:03;13.30;99.90
59148;DHT22;44930;52.878;6.168;2023-08-30T01:28:12;13.70;99.90
59148;DHT22;44930;52.878;6.168;2023-08-30T01:30:40;13.30;99.90
59148;DHT22;44930;52.878;6.168;2023-08-30T01:33:08;13.30;99.90
59148;DHT22;44930;52.878;6.168;2023-08-30T01:35:34;13.30;99.90
59148;DHT22;44930;52.878;6.168;2023-08-30T01:38:03;13.40;99.90
59148;DHT22;44930;52.878;6.168;2023-08-30T01:40:33;13.30;99.90
59148;DHT22;44930;52.878;6.168;2023-08-30T01:43:01;13.40;99.90
59148;DHT22;44930;52.878;6.168;2023-08-30T01:45:27;13.40;99.90
59148;DHT22;44930;52.878;6.168;2023-08-30T01:47:54;13.50;99.90
59148;DHT22;44930;52.878;6.168;2023-08-30T01:50:21;13.30;99.90
59148;DHT22;44930;52.878;6.168;2023-08-30T01:52:47;13.30;99.90
59148;DHT22;44930;52.878;6.168;2023-08-30T01:55:14;13.20;99.90
59148;DHT22;44930;52.878;6.168;2023-08-30T02:00:06;13.10;99.90
59148;DHT22;44930;52.878;6.168;2023-08-30T02:02:32;13.20;99.90
59148;DHT22;44930;52.878;6.168;2023-08-30T02:04:57;13.10;99.90
59148;DHT22;44930;52.878;6.168;2023-08-30T02:07:33;13.20;99.90
59148;DHT22;44930;52.878;6.168;2023-08-30T02:10:13;13.00;99.90
59148;DHT22;44930;52.878;6.168;2023-08-30T02:12:48;13.00;99.90
59148;DHT22;44930;52.878;6.168;2023-08-30T02:15:14;12.90;99.90
59148;DHT22;44930;52.878;6.168;2023-08-30T02:17:41;12.90;99.90
59148;DHT22;44930;52.878;6.168;2023-08-30T02:20:07;12.80;99.90
59148;DHT22;44930;52.878;6.168;2023-08-30T02:22:33;12.70;99.90
59148;DHT22;44930;52.878;6.168;2023-08-30T02:24:59;12.70;99.90
59148;DHT22;44930;52.878;6.168;2023-08-30T02:27:26;12.60;99.90
59148;DHT22;44930;52.878;6.168;2023-08-30T02:29:52;12.70;99.90
59148;DHT22;44930;52.878;6.168;2023-08-30T02:32:17;12.40;99.90
59148;DHT22;44930;52.878;6.168;2023-08-30T02:34:51;12.60;99.90
59148;DHT22;44930;52.878;6.168;2023-08-30T02:37:17;12.60;99.90
59148;DHT22;44930;52.878;6.168;2023-08-30T02:39:42;12.50;99.90
59148;DHT22;44930;52.878;6.168;2023-08-30T02:42:08;12.50;99.90
59148;DHT22;44930;52.878;6.168;2023-08-30T02:44:33;12.50;99.90
59148;DHT22;44930;52.878;6.168;2023-08-30T02:46:59;12.50;99.90
59148;DHT22;44930;52.878;6.168;2023-08-30T02:49:25;12.20;99.90
59148;DHT22;44930;52.878;6.168;2023-08-30T02:51:50;12.50;99.90
59148;DHT22;44930;52.878;6.168;2023-08-30T02:54:16;12.30;99.90
59148;DHT22;44930;52.878;6.168;2023-08-30T02:56:44;12.30;99.90
59148;DHT22;44930;52.878;6.168;2023-08-30T02:59:10;12.40;99.90
59148;DHT22;44930;52.878;6.168;2023-08-30T03:01:36;12.50;99.90
59148;DHT22;44930;52.878;6.168;2023-08-30T03:04:04;12.50;99.90
59148;DHT22;44930;52.878;6.168;2023-08-30T03:06:30;12.50;99.90
59148;DHT22;44930;52.878;6.168;2023-08-30T03:08:55;12.50;99.90
59148;DHT22;44930;52.878;6.168;2023-08-30T03:13:47;12.50;99.90
59148;DHT22;44930;52.878;6.168;2023-08-30T03:18:43;12.60;99.90
59148;DHT22;44930;52.878;6.168;2023-08-30T03:21:09;12.50;99.90
59148;DHT22;44930;52.878;6.168;2023-08-30T03:23:36;12.80;99.90
59148;DHT22;44930;52.878;6.168;2023-08-30T03:26:08;12.60;99.90
59148;DHT22;44930;52.878;6.168;2023-08-30T03:28:35;12.70;99.90
59148;DHT22;44930;52.878;6.168;2023-08-30T03:31:01;12.70;99.90
59148;DHT22;44930;52.878;6.168;2023-08-30T03:35:52;12.70;99.90
59148;DHT22;44930;52.878;6.168;2023-08-30T03:38:18;12.80;99.90
59148;DHT22;44930;52.878;6.168;2023-08-30T03:40:44;12.70;99.90
59148;DHT22;44930;52.878;6.168;2023-08-30T03:43:10;12.70;99.90
59148;DHT22;44930;52.878;6.168;2023-08-30T03:45:36;12.80;99.90
59148;DHT22;44930;52.878;6.168;2023-08-30T03:48:03;12.70;99.90
59148;DHT22;44930;52.878;6.168;2023-08-30T03:50:28;12.60;99.90
59148;DHT22;44930;52.878;6.168;2023-08-30T03:52:54;12.70;99.90
59148;DHT22;44930;52.878;6.168;2023-08-30T03:55:19;12.60;99.90
59148;DHT22;44930;52.878;6.168;2023-08-30T03:57:46;12.80;99.90
59148;DHT22;44930;52.878;6.168;2023-08-30T04:00:12;12.70;99.90
59148;DHT22;44930;52.878;6.168;2023-08-30T04:02:37;12.70;99.90
59148;DHT22;44930;52.878;6.168;2023-08-30T04:05:03;12.60;99.90
59148;DHT22;44930;52.878;6.168;2023-08-30T04:07:33;12.60;99.90
59148;DHT22;44930;52.878;6.168;2023-08-30T04:09:59;12.70;99.90
59148;DHT22;44930;52.878;6.168;2023-08-30T04:12:24;12.70;99.90
59148;DHT22;44930;52.878;6.168;2023-08-30T04:14:50;12.90;99.90
59148;DHT22;44930;52.878;6.168;2023-08-30T04:17:15;12.90;99.90
59148;DHT22;44930;52.878;6.168;2023-08-30T04:19:41;12.70;99.90
59148;DHT22;44930;52.878;6.168;2023-08-30T04:22:06;12.80;99.90
59148;DHT22;44930;52.878;6.168;2023-08-30T04:24:32;12.90;99.90
59148;DHT22;44930;52.878;6.168;2023-08-30T04:26:57;12.90;99.90
59148;DHT22;44930;52.878;6.168;2023-08-30T04:29:23;12.90;99.90
59148;DHT22;44930;52.878;6.168;2023-08-30T04:31:48;12.60;99.90
59148;DHT22;44930;52.878;6.168;2023-08-30T04:34:14;13.00;99.90
59148;DHT22;44930;52.878;6.168;2023-08-30T04:36:41;12.90;99.90
59148;DHT22;44930;52.878;6.168;2023-08-30T04:39:07;12.90;99.90
59148;DHT22;44930;52.878;6.168;2023-08-30T04:41:32;12.70;99.90
59148;DHT22;44930;52.878;6.168;2023-08-30T04:43:59;12.90;99.90
59148;DHT22;44930;52.878;6.168;2023-08-30T04:46:24;13.00;99.90
59148;DHT22;44930;52.878;6.168;2023-08-30T04:48:50;12.90;99.90
59148;DHT22;44930;52.878;6.168;2023-08-30T04:51:15;13.00;99.90
59148;DHT22;44930;52.878;6.168;2023-08-30T04:53:41;13.10;99.90
59148;DHT22;44930;52.878;6.168;2023-08-30T04:56:12;13.00;99.90
59148;DHT22;44930;52.878;6.168;2023-08-30T04:58:38;13.10;99.90
59148;DHT22;44930;52.878;6.168;2023-08-30T05:01:04;13.00;99.90
59148;DHT22;44930;52.878;6.168;2023-08-30T05:03:30;13.00;99.90
59148;DHT22;44930;52.878;6.168;2023-08-30T05:05:56;13.00;99.90
59148;DHT22;44930;52.878;6.168;2023-08-30T05:08:21;13.00;99.90
59148;DHT22;44930;52.878;6.168;2023-08-30T05:10:47;13.00;99.90
59148;DHT22;44930;52.878;6.168;2023-08-30T05:13:16;13.10;99.90
59148;DHT22;44930;52.878;6.168;2023-08-30T05:15:41;13.00;99.90
59148;DHT22;44930;52.878;6.168;2023-08-30T05:18:07;12.90;99.90
59148;DHT22;44930;52.878;6.168;2023-08-30T05:20:32;13.20;99.90
59148;DHT22;44930;52.878;6.168;2023-08-30T05:22:58;13.10;99.90
59148;DHT22;44930;52.878;6.168;2023-08-30T05:25:24;13.20;99.90
59148;DHT22;44930;52.878;6.168;2023-08-30T05:27:49;13.10;99.90
59148;DHT22;44930;52.878;6.168;2023-08-30T05:30:15;13.20;99.90
59148;DHT22;44930;52.878;6.168;2023-08-30T05:32:41;13.10;99.90
59148;DHT22;44930;52.878;6.168;2023-08-30T05:35:07;13.00;99.90
59148;DHT22;44930;52.878;6.168;2023-08-30T05:37:33;13.10;99.90
59148;DHT22;44930;52.878;6.168;2023-08-30T05:39:58;13.10;99.90
59148;DHT22;44930;52.878;6.168;2023-08-30T05:42:24;13.30;99.90
59148;DHT22;44930;52.878;6.168;2023-08-30T05:44:50;13.20;99.90
59148;DHT22;44930;52.878;6.168;2023-08-30T05:47:15;13.40;99.90
59148;DHT22;44930;52.878;6.168;2023-08-30T05:49:42;13.10;99.90
59148;DHT22;44930;52.878;6.168;2023-08-30T05:52:08;13.20;99.90
59148;DHT22;44930;52.878;6.168;2023-08-30T05:54:33;13.20;99.90
59148;DHT22;44930;52.878;6.168;2023-08-30T05:56:59;13.20;99.90
59148;DHT22;44930;52.878;6.168;2023-08-30T05:59:25;13.30;99.90
59148;DHT22;44930;52.878;6.168;2023-08-30T06:01:50;13.30;99.90
59148;DHT22;44930;52.878;6.168;2023-08-30T06:04:16;13.40;99.90
59148;DHT22;44930;52.878;6.168;2023-08-30T06:09:08;13.40;99.90
59148;DHT22;44930;52.878;6.168;2023-08-30T06:11:33;13.50;99.90
59148;DHT22;44930;52.878;6.168;2023-08-30T06:13:59;13.50;99.90
59148;DHT22;44930;52.878;6.168;2023-08-30T06:16:25;13.50;99.90
59148;DHT22;44930;52.878;6.168;2023-08-30T06:18:50;13.50;99.90
59148;DHT22;44930;52.878;6.168;2023-08-30T06:21:16;13.50;99.90
59148;DHT22;44930;52.878;6.168;2023-08-30T06:23:42;13.60;99.90
59148;DHT22;44930;52.878;6.168;2023-08-30T06:26:07;13.70;99.90
59148;DHT22;44930;52.878;6.168;2023-08-30T06:28:33;13.70;99.90
59148;DHT22;44930;52.878;6.168;2023-08-30T06:35:50;13.70;99.90
59148;DHT22;44930;52.878;6.168;2023-08-30T06:38:16;13.70;99.90
59148;DHT22;44930;52.878;6.168;2023-08-30T06:40:45;13.70;99.90
59148;DHT22;44930;52.878;6.168;2023-08-30T06:43:12;13.70;99.90
59148;DHT22;44930;52.878;6.168;2023-08-30T06:45:42;13.70;99.90
59148;DHT22;44930;52.878;6.168;2023-08-30T06:50:34;13.80;99.90
59148;DHT22;44930;52.878;6.168;2023-08-30T06:53:00;13.80;99.90
59148;DHT22;44930;52.878;6.168;2023-08-30T06:55:26;13.80;99.90
59148;DHT22;44930;52.878;6.168;2023-08-30T06:57:51;13.80;99.90
59148;DHT22;44930;52.878;6.168;2023-08-30T07:02:43;13.90;99.90
59148;DHT22;44930;52.878;6.168;2023-08-30T07:05:14;13.80;99.90
59148;DHT22;44930;52.878;6.168;2023-08-30T07:07:40;13.90;99.90
59148;DHT22;44930;52.878;6.168;2023-08-30T07:10:06;13.90;99.90
59148;DHT22;44930;52.878;6.168;2023-08-30T07:12:31;14.10;99.90
59148;DHT22;44930;52.878;6.168;2023-08-30T07:14:57;14.20;99.90
59148;DHT22;44930;52.878;6.168;2023-08-30T07:17:23;14.30;99.90
59148;DHT22;44930;52.878;6.168;2023-08-30T07:19:49;14.40;99.90
59148;DHT22;44930;52.878;6.168;2023-08-30T07:22:15;14.50;99.90
59148;DHT22;44930;52.878;6.168;2023-08-30T07:27:08;14.70;99.90
59148;DHT22;44930;52.878;6.168;2023-08-30T07:29:34;14.60;99.90
59148;DHT22;44930;52.878;6.168;2023-08-30T07:31:59;14.60;99.90
59148;DHT22;44930;52.878;6.168;2023-08-30T07:34:25;14.70;99.90
59148;DHT22;44930;52.878;6.168;2023-08-30T07:36:54;14.50;99.90
59148;DHT22;44930;52.878;6.168;2023-08-30T07:39:19;14.70;99.90
59148;DHT22;44930;52.878;6.168;2023-08-30T07:41:45;14.50;99.90
59148;DHT22;44930;52.878;6.168;2023-08-30T07:44:10;14.80;99.90
59148;DHT22;44930;52.878;6.168;2023-08-30T07:46:36;14.80;99.90
59148;DHT22;44930;52.878;6.168;2023-08-30T07:49:01;14.70;99.90
59148;DHT22;44930;52.878;6.168;2023-08-30T07:51:28;14.90;99.90
59148;DHT22;44930;52.878;6.168;2023-08-30T07:53:53;14.70;99.90
59148;DHT22;44930;52.878;6.168;2023-08-30T07:56:19;14.90;99.90
59148;DHT22;44930;52.878;6.168;2023-08-30T07:58:44;14.90;99.90
59148;DHT22;44930;52.878;6.168;2023-08-30T08:01:10;15.10;99.90
59148;DHT22;44930;52.878;6.168;2023-08-30T08:03:35;14.80;99.90
59148;DHT22;44930;52.878;6.168;2023-08-30T08:06:01;15.10;99.90
59148;DHT22;44930;52.878;6.168;2023-08-30T08:08:26;14.90;99.90
59148;DHT22;44930;52.878;6.168;2023-08-30T08:10:52;14.90;99.90
59148;DHT22;44930;52.878;6.168;2023-08-30T08:13:17;15.40;99.90
59148;DHT22;44930;52.878;6.168;2023-08-30T08:15:43;14.60;99.90
59148;DHT22;44930;52.878;6.168;2023-08-30T08:18:09;14.90;99.90
59148;DHT22;44930;52.878;6.168;2023-08-30T08:20:35;14.80;99.90
59148;DHT22;44930;52.878;6.168;2023-08-30T08:23:02;14.90;99.90
59148;DHT22;44930;52.878;6.168;2023-08-30T08:25:28;14.90;99.90
59148;DHT22;44930;52.878;6.168;2023-08-30T08:27:54;14.60;99.90
59148;DHT22;44930;52.878;6.168;2023-08-30T08:30:19;14.60;99.90
59148;DHT22;44930;52.878;6.168;2023-08-30T08:32:46;14.80;99.90
59148;DHT22;44930;52.878;6.168;2023-08-30T08:35:15;14.70;99.90
59148;DHT22;44930;52.878;6.168;2023-08-30T08:37:41;14.50;99.90
59148;DHT22;44930;52.878;6.168;2023-08-30T08:40:07;14.60;99.90
59148;DHT22;44930;52.878;6.168;2023-08-30T08:42:36;14.60;99.90
59148;DHT22;44930;52.878;6.168;2023-08-30T08:45:03;14.60;99.90
59148;DHT22;44930;52.878;6.168;2023-08-30T08:49:59;14.50;99.90
59148;DHT22;44930;52.878;6.168;2023-08-30T08:52:26;14.60;99.90
59148;DHT22;44930;52.878;6.168;2023-08-30T08:57:19;14.40;99.90
59148;DHT22;44930;52.878;6.168;2023-08-30T08:59:44;14.60;99.90
59148;DHT22;44930;52.878;6.168;2023-08-30T09:02:13;14.40;99.90
59148;DHT22;44930;52.878;6.168;2023-08-30T09:04:39;14.60;99.90
59148;DHT22;44930;52.878;6.168;2023-08-30T09:07:05;14.70;99.90
59148;DHT22;44930;52.878;6.168;2023-08-30T09:09:31;14.60;99.90
59148;DHT22;44930;52.878;6.168;2023-08-30T09:11:58;14.60;99.90
59148;DHT22;44930;52.878;6.168;2023-08-30T09:14:23;14.50;99.90
59148;DHT22;44930;52.878;6.168;2023-08-30T09:16:56;14.70;99.90
59148;DHT22;44930;52.878;6.168;2023-08-30T09:19:22;14.80;99.90
59148;DHT22;44930;52.878;6.168;2023-08-30T09:21:51;14.70;99.90
59148;DHT22;44930;52.878;6.168;2023-08-30T09:24:17;14.60;99.90
59148;DHT22;44930;52.878;6.168;2023-08-30T09:26:47;14.70;99.90
59148;DHT22;44930;52.878;6.168;2023-08-30T09:29:13;14.60;99.90
59148;DHT22;44930;52.878;6.168;2023-08-30T09:31:39;14.60;99.90
59148;DHT22;44930;52.878;6.168;2023-08-30T09:34:08;14.80;99.90
59148;DHT22;44930;52.878;6.168;2023-08-30T09:36:40;14.80;99.90
59148;DHT22;44930;52.878;6.168;2023-08-30T09:39:10;14.50;99.90
59148;DHT22;44930;52.878;6.168;2023-08-30T09:41:40;15.00;99.90
59148;DHT22;44930;52.878;6.168;2023-08-30T09:44:09;15.10;99.90
59148;DHT22;44930;52.878;6.168;2023-08-30T09:46:42;15.40;99.90
59148;DHT22;44930;52.878;6.168;2023-08-30T09:49:09;15.40;99.90
59148;DHT22;44930;52.878;6.168;2023-08-30T09:51:35;15.40;99.90
59148;DHT22;44930;52.878;6.168;2023-08-30T09:54:04;15.50;99.90
59148;DHT22;44930;52.878;6.168;2023-08-30T09:56:32;15.40;99.90
59148;DHT22;44930;52.878;6.168;2023-08-30T09:58:58;15.50;99.90
59148;DHT22;44930;52.878;6.168;2023-08-30T10:01:26;15.30;99.90
59148;DHT22;44930;52.878;6.168;2023-08-30T10:03:54;15.20;99.90
59148;DHT22;44930;52.878;6.168;2023-08-30T10:06:20;15.50;99.90
59148;DHT22;44930;52.878;6.168;2023-08-30T10:08:48;15.40;99.90
59148;DHT22;44930;52.878;6.168;2023-08-30T10:11:18;15.40;99.90
59148;DHT22;44930;52.878;6.168;2023-08-30T10:13:44;15.40;99.90
59148;DHT22;44930;52.878;6.168;2023-08-30T10:16:18;15.40;99.90
59148;DHT22;44930;52.878;6.168;2023-08-30T10:18:47;15.20;99.90
59148;DHT22;44930;52.878;6.168;2023-08-30T10:21:18;15.20;99.90
59148;DHT22;44930;52.878;6.168;2023-08-30T10:23:45;15.20;99.90
59148;DHT22;44930;52.878;6.168;2023-08-30T10:26:14;15.30;99.90
59148;DHT22;44930;52.878;6.168;2023-08-30T10:28:41;15.30;99.90
59148;DHT22;44930;52.878;6.168;2023-08-30T10:31:07;15.50;99.90
59148;DHT22;44930;52.878;6.168;2023-08-30T10:36:10;15.00;99.90
59148;DHT22;44930;52.878;6.168;2023-08-30T10:38:35;14.90;99.90
59148;DHT22;44930;52.878;6.168;2023-08-30T10:41:08;15.00;99.90
59148;DHT22;44930;52.878;6.168;2023-08-30T10:43:35;14.90;99.90
59148;DHT22;44930;52.878;6.168;2023-08-30T10:46:05;15.00;99.90
59148;DHT22;44930;52.878;6.168;2023-08-30T10:48:40;15.00;99.90
59148;DHT22;44930;52.878;6.168;2023-08-30T10:51:19;15.10;99.90
59148;DHT22;44930;52.878;6.168;2023-08-30T10:53:58;14.90;99.90
59148;DHT22;44930;52.878;6.168;2023-08-30T10:56:28;14.90;99.90
59148;DHT22;44930;52.878;6.168;2023-08-30T10:58:54;14.90;99.90
59148;DHT22;44930;52.878;6.168;2023-08-30T11:01:20;15.00;99.90
59148;DHT22;44930;52.878;6.168;2023-08-30T11:03:46;14.90;99.90
59148;DHT22;44930;52.878;6.168;2023-08-30T11:06:15;15.00;99.90
59148;DHT22;44930;52.878;6.168;2023-08-30T11:08:43;14.80;99.90
59148;DHT22;44930;52.878;6.168;2023-08-30T11:11:09;14.80;99.90
59148;DHT22;44930;52.878;6.168;2023-08-30T11:13:36;14.70;99.90
59148;DHT22;44930;52.878;6.168;2023-08-30T11:16:02;14.80;99.90
59148;DHT22;44930;52.878;6.168;2023-08-30T11:21:02;14.80;99.90
59148;DHT22;44930;52.878;6.168;2023-08-30T11:23:28;14.90;99.90
59148;DHT22;44930;52.878;6.168;2023-08-30T11:25:54;15.00;99.90
59148;DHT22;44930;52.878;6.168;2023-08-30T11:28:24;14.70;99.90
59148;DHT22;44930;52.878;6.168;2023-08-30T11:30:54;14.70;99.90
59148;DHT22;44930;52.878;6.168;2023-08-30T11:33:20;14.80;99.90
59148;DHT22;44930;52.878;6.168;2023-08-30T11:35:49;14.50;99.90
59148;DHT22;44930;52.878;6.168;2023-08-30T11:38:15;14.80;99.90
59148;DHT22;44930;52.878;6.168;2023-08-30T11:40:40;14.80;99.90
59148;DHT22;44930;52.878;6.168;2023-08-30T11:43:06;14.90;99.90
59148;DHT22;44930;52.878;6.168;2023-08-30T11:45:33;14.90;99.90
59148;DHT22;44930;52.878;6.168;2023-08-30T11:48:02;14.80;99.90
59148;DHT22;44930;52.878;6.168;2023-08-30T11:50:28;14.60;99.90
59148;DHT22;44930;52.878;6.168;2023-08-30T11:52:54;14.90;99.90
59148;DHT22;44930;52.878;6.168;2023-08-30T11:55:21;14.80;99.90
59148;DHT22;44930;52.878;6.168;2023-08-30T11:57:50;14.80;99.90
59148;DHT22;44930;52.878;6.168;2023-08-30T12:00:18;14.40;99.90
59148;DHT22;44930;52.878;6.168;2023-08-30T12:02:46;14.80;99.90
59148;DHT22;44930;52.878;6.168;2023-08-30T12:05:13;15.20;99.90
59148;DHT22;44930;52.878;6.168;2023-08-30T12:07:39;14.90;99.90
59148;DHT22;44930;52.878;6.168;2023-08-30T12:10:10;14.90;99.90
59148;DHT22;44930;52.878;6.168;2023-08-30T12:12:37;14.90;99.90
59148;DHT22;44930;52.878;6.168;2023-08-30T12:15:09;14.80;99.90
59148;DHT22;44930;52.878;6.168;2023-08-30T12:17:35;15.10;99.90
59148;DHT22;44930;52.878;6.168;2023-08-30T12:20:01;14.90;99.90
59148;DHT22;44930;52.878;6.168;2023-08-30T12:22:38;14.80;99.90
59148;DHT22;44930;52.878;6.168;2023-08-30T12:25:04;15.10;99.90
59148;DHT22;44930;52.878;6.168;2023-08-30T12:27:29;14.60;99.90
59148;DHT22;44930;52.878;6.168;2023-08-30T12:29:55;14.90;99.90
59148;DHT22;44930;52.878;6.168;2023-08-30T12:32:21;14.90;99.90
59148;DHT22;44930;52.878;6.168;2023-08-30T12:34:46;14.90;99.90
59148;DHT22;44930;52.878;6.168;2023-08-30T12:37:12;14.80;99.90
59148;DHT22;44930;52.878;6.168;2023-08-30T12:39:37;14.70;99.90
59148;DHT22;44930;52.878;6.168;2023-08-30T12:42:03;14.70;99.90
59148;DHT22;44930;52.878;6.168;2023-08-30T12:44:29;15.20;99.90
59148;DHT22;44930;52.878;6.168;2023-08-30T12:46:55;14.90;99.90
59148;DHT22;44930;52.878;6.168;2023-08-30T12:49:20;14.80;99.90
59148;DHT22;44930;52.878;6.168;2023-08-30T12:51:46;14.70;99.90
59148;DHT22;44930;52.878;6.168;2023-08-30T12:54:12;14.60;99.90
59148;DHT22;44930;52.878;6.168;2023-08-30T12:56:37;14.50;99.90
59148;DHT22;44930;52.878;6.168;2023-08-30T12:59:03;14.60;99.90
59148;DHT22;44930;52.878;6.168;2023-08-30T13:03:55;14.30;99.90
59148;DHT22;44930;52.878;6.168;2023-08-30T13:06:20;14.50;99.90
59148;DHT22;44930;52.878;6.168;2023-08-30T13:08:46;14.80;99.90
59148;DHT22;44930;52.878;6.168;2023-08-30T13:11:11;14.80;99.90
59148;DHT22;44930;52.878;6.168;2023-08-30T13:13:37;14.90;99.90
59148;DHT22;44930;52.878;6.168;2023-08-30T13:16:02;14.50;99.90
59148;DHT22;44930;52.878;6.168;2023-08-30T13:18:28;15.00;99.90
59148;DHT22;44930;52.878;6.168;2023-08-30T13:20:54;14.70;99.90
59148;DHT22;44930;52.878;6.168;2023-08-30T13:23:20;15.10;99.90
59148;DHT22;44930;52.878;6.168;2023-08-30T13:25:47;15.20;99.90
59148;DHT22;44930;52.878;6.168;2023-08-30T13:28:14;15.70;99.90
59148;DHT22;44930;52.878;6.168;2023-08-30T13:30:46;15.30;99.90
59148;DHT22;44930;52.878;6.168;2023-08-30T13:33:12;15.10;99.90
59148;DHT22;44930;52.878;6.168;2023-08-30T13:35:40;15.60;99.90
59148;DHT22;44930;52.878;6.168;2023-08-30T13:38:06;15.80;99.90
59148;DHT22;44930;52.878;6.168;2023-08-30T13:40:32;15.80;99.90
59148;DHT22;44930;52.878;6.168;2023-08-30T13:42:57;15.90;99.90
59148;DHT22;44930;52.878;6.168;2023-08-30T13:47:49;15.90;99.90
59148;DHT22;44930;52.878;6.168;2023-08-30T13:50:17;15.90;99.90
59148;DHT22;44930;52.878;6.168;2023-08-30T13:52:42;16.10;99.90
59148;DHT22;44930;52.878;6.168;2023-08-30T13:55:08;16.00;99.90
59148;DHT22;44930;52.878;6.168;2023-08-30T13:57:34;16.20;99.90
59148;DHT22;44930;52.878;6.168;2023-08-30T13:59:59;16.20;99.90
59148;DHT22;44930;52.878;6.168;2023-08-30T14:02:27;16.20;99.90
59148;DHT22;44930;52.878;6.168;2023-08-30T14:04:53;16.40;99.90
59148;DHT22;44930;52.878;6.168;2023-08-30T14:07:19;16.40;99.90
59148;DHT22;44930;52.878;6.168;2023-08-30T14:09:45;16.80;99.90
59148;DHT22;44930;52.878;6.168;2023-08-30T14:12:11;17.00;99.90
59148;DHT22;44930;52.878;6.168;2023-08-30T14:14:36;17.00;99.90
59148;DHT22;44930;52.878;6.168;2023-08-30T14:17:02;17.40;99.90
59148;DHT22;44930;52.878;6.168;2023-08-30T14:19:27;17.10;99.90
59148;DHT22;44930;52.878;6.168;2023-08-30T14:21:53;16.80;99.90
59148;DHT22;44930;52.878;6.168;2023-08-30T14:24:20;16.80;99.90
59148;DHT22;44930;52.878;6.168;2023-08-30T14:26:46;16.80;99.90
59148;DHT22;44930;52.878;6.168;2023-08-30T14:29:11;16.90;99.90
59148;DHT22;44930;52.878;6.168;2023-08-30T14:31:37;16.90;99.90
59148;DHT22;44930;52.878;6.168;2023-08-30T14:34:02;16.80;99.90
59148;DHT22;44930;52.878;6.168;2023-08-30T14:36:28;16.60;99.90
59148;DHT22;44930;52.878;6.168;2023-08-30T14:38:53;16.40;99.90
59148;DHT22;44930;52.878;6.168;2023-08-30T14:41:19;16.40;99.90
59148;DHT22;44930;52.878;6.168;2023-08-30T14:43:44;16.30;99.90
59148;DHT22;44930;52.878;6.168;2023-08-30T14:46:10;16.30;99.90
59148;DHT22;44930;52.878;6.168;2023-08-30T14:48:35;16.40;99.90
59148;DHT22;44930;52.878;6.168;2023-08-30T14:51:04;16.10;99.90
59148;DHT22;44930;52.878;6.168;2023-08-30T14:55:55;16.60;99.90
59148;DHT22;44930;52.878;6.168;2023-08-30T14:58:21;16.30;99.90
59148;DHT22;44930;52.878;6.168;2023-08-30T15:00:47;16.50;99.90
59148;DHT22;44930;52.878;6.168;2023-08-30T15:03:13;16.50;99.90
59148;DHT22;44930;52.878;6.168;2023-08-30T15:05:39;16.60;99.90
59148;DHT22;44930;52.878;6.168;2023-08-30T15:08:05;17.00;99.90
59148;DHT22;44930;52.878;6.168;2023-08-30T15:10:31;16.90;99.90
59148;DHT22;44930;52.878;6.168;2023-08-30T15:12:56;17.10;99.90
59148;DHT22;44930;52.878;6.168;2023-08-30T15:15:22;17.00;99.90
59148;DHT22;44930;52.878;6.168;2023-08-30T15:17:47;17.10;99.90
59148;DHT22;44930;52.878;6.168;2023-08-30T15:20:13;16.80;99.90
59148;DHT22;44930;52.878;6.168;2023-08-30T15:22:39;16.70;99.90
59148;DHT22;44930;52.878;6.168;2023-08-30T15:25:05;16.70;99.90
59148;DHT22;44930;52.878;6.168;2023-08-30T15:27:35;16.40;99.90
59148;DHT22;44930;52.878;6.168;2023-08-30T15:30:01;16.30;99.90
59148;DHT22;44930;52.878;6.168;2023-08-30T15:32:27;16.30;99.90
59148;DHT22;44930;52.878;6.168;2023-08-30T15:34:54;16.30;99.90
59148;DHT22;44930;52.878;6.168;2023-08-30T15:37:20;16.20;99.90
59148;DHT22;44930;52.878;6.168;2023-08-30T15:39:45;16.10;99.90
59148;DHT22;44930;52.878;6.168;2023-08-30T15:42:11;16.10;99.90
59148;DHT22;44930;52.878;6.168;2023-08-30T15:44:37;16.30;99.90
59148;DHT22;44930;52.878;6.168;2023-08-30T15:47:03;16.30;99.90
59148;DHT22;44930;52.878;6.168;2023-08-30T15:49:28;16.20;99.90
59148;DHT22;44930;52.878;6.168;2023-08-30T15:51:54;16.40;99.90
59148;DHT22;44930;52.878;6.168;2023-08-30T15:54:20;16.40;99.90
59148;DHT22;44930;52.878;6.168;2023-08-30T15:56:45;16.40;99.90
59148;DHT22;44930;52.878;6.168;2023-08-30T15:59:11;16.50;99.90
59148;DHT22;44930;52.878;6.168;2023-08-30T16:01:37;16.70;99.90
59148;DHT22;44930;52.878;6.168;2023-08-30T16:04:03;17.00;99.90
59148;DHT22;44930;52.878;6.168;2023-08-30T16:06:29;16.90;99.90
59148;DHT22;44930;52.878;6.168;2023-08-30T16:08:54;17.00;99.90
59148;DHT22;44930;52.878;6.168;2023-08-30T16:11:20;16.80;99.90
59148;DHT22;44930;52.878;6.168;2023-08-30T16:13:45;16.80;99.90
59148;DHT22;44930;52.878;6.168;2023-08-30T16:16:11;16.70;99.90
59148;DHT22;44930;52.878;6.168;2023-08-30T16:18:36;16.50;99.90
59148;DHT22;44930;52.878;6.168;2023-08-30T16:21:02;16.10;99.90
59148;DHT22;44930;52.878;6.168;2023-08-30T16:23:28;16.30;99.90